Time;durP1;ratioP1;P1;durP2;ratioP2;P2;SDS_P1;SDS_P2;PMS_P1;PMS_P2;Temp;Humidity;BMP_temperature;BMP_pressure;BME280_temperature;BME280_humidity;BME280_pressure;Samples;Min_cycle;Max_cycle;Signal;HPM_P1;HPM_P2
2022/03/09 00:00:47;;;;;;;37.00;15.30;;;-0.60;99.90;;;;;;5055303;28;20188;-83
2022/03/09 00:03:14;;;;;;;37.20;14.90;;;-0.60;99.90;;;;;;5054976;28;20197;-85
2022/03/09 00:05:42;;;;;;;34.50;15.03;;;-0.70;99.90;;;;;;5055040;28;20262;-85
2022/03/09 00:08:09;;;;;;;37.63;15.30;;;-0.70;99.90;;;;;;5052806;28;20197;-85
2022/03/09 00:10:36;;;;;;;35.33;14.97;;;-0.70;99.90;;;;;;5054790;28;20246;-85
2022/03/09 00:13:05;;;;;;;34.30;15.27;;;-0.70;99.90;;;;;;5054286;28;20197;-84
2022/03/09 00:15:32;;;;;;;37.80;15.73;;;-0.80;99.90;;;;;;5054357;28;20275;-84
2022/03/09 00:17:59;;;;;;;33.77;16.20;;;-0.80;99.90;;;;;;5054263;28;20201;-84
2022/03/09 00:20:26;;;;;;;34.97;15.60;;;-0.80;99.90;;;;;;5054196;28;20221;-84
2022/03/09 00:22:53;;;;;;;32.07;15.53;;;-0.80;99.90;;;;;;5054500;28;20204;-86
2022/03/09 00:25:20;;;;;;;37.23;16.37;;;-0.80;99.90;;;;;;5054287;28;20271;-84
2022/03/09 00:27:47;;;;;;;37.60;16.60;;;-0.90;99.90;;;;;;5047507;28;20185;-84
2022/03/09 00:30:15;;;;;;;41.53;17.43;;;-0.90;99.90;;;;;;5034557;28;20266;-84
2022/03/09 00:32:42;;;;;;;37.57;18.40;;;-0.90;99.90;;;;;;5034506;28;20200;-82
2022/03/09 00:35:10;;;;;;;36.40;16.67;;;-1.00;99.90;;;;;;5034405;28;20200;-84
2022/03/09 00:37:37;;;;;;;35.57;15.07;;;-1.00;99.90;;;;;;5034349;28;20193;-84
2022/03/09 00:40:06;;;;;;;32.93;14.60;;;-1.00;1.00;;;;;;5034004;28;20248;-85
2022/03/09 00:42:36;;;;;;;30.80;15.47;;;-1.00;99.90;;;;;;5034269;28;20197;-85
2022/03/09 00:45:03;;;;;;;29.93;14.87;;;-1.00;99.90;;;;;;5034189;28;20293;-85
2022/03/09 00:47:32;;;;;;;30.37;14.03;;;-1.10;99.90;;;;;;5035210;28;20189;-84
2022/03/09 00:49:59;;;;;;;33.23;14.43;;;-1.10;99.90;;;;;;5033718;28;20194;-86
2022/03/09 00:52:26;;;;;;;31.70;13.90;;;-1.10;99.90;;;;;;5033721;28;20646;-86
2022/03/09 00:54:53;;;;;;;31.53;13.97;;;-1.10;99.90;;;;;;5034292;28;20283;-84
2022/03/09 00:57:20;;;;;;;35.00;15.27;;;-1.10;99.90;;;;;;5051702;28;20257;-83
2022/03/09 00:59:47;;;;;;;33.40;15.27;;;-1.20;99.90;;;;;;5053815;28;20231;-84
2022/03/09 01:02:14;;;;;;;33.13;13.80;;;-1.20;99.90;;;;;;5054132;28;20222;-84
2022/03/09 01:04:42;;;;;;;26.40;12.47;;;-1.20;99.90;;;;;;5053301;28;20680;-83
2022/03/09 01:07:09;;;;;;;26.20;13.23;;;-1.10;99.90;;;;;;5053746;28;20276;-85
2022/03/09 01:09:36;;;;;;;27.57;13.23;;;-1.20;99.90;;;;;;5053810;28;20254;-84
2022/03/09 01:12:04;;;;;;;27.90;12.83;;;-1.20;99.90;;;;;;5053469;28;20547;-86
2022/03/09 01:14:31;;;;;;;31.70;13.30;;;-1.20;99.90;;;;;;5053240;28;20603;-84
2022/03/09 01:16:58;;;;;;;26.03;12.77;;;-1.20;99.90;;;;;;5051364;28;20254;-84
2022/03/09 01:19:25;;;;;;;23.90;11.50;;;-1.20;99.90;;;;;;5033296;28;20267;-85
2022/03/09 01:21:54;;;;;;;28.67;13.57;;;-1.20;99.90;;;;;;5033253;28;20645;-85
2022/03/09 01:24:21;;;;;;;29.63;12.67;;;-1.20;99.90;;;;;;5033726;28;20189;-85
2022/03/09 01:26:48;;;;;;;27.83;13.60;;;-1.20;99.90;;;;;;5033226;28;20271;-85
2022/03/09 01:29:15;;;;;;;27.53;13.60;;;-1.30;99.90;;;;;;5033146;28;20197;-85
2022/03/09 01:31:42;;;;;;;27.60;12.77;;;-1.30;99.90;;;;;;5033005;28;20201;-85
2022/03/09 01:34:09;;;;;;;22.70;12.50;;;-1.30;99.90;;;;;;5033292;28;20193;-84
2022/03/09 01:36:37;;;;;;;27.33;12.40;;;-1.30;99.90;;;;;;5033354;28;20257;-84
2022/03/09 01:39:05;;;;;;;24.43;12.47;;;-1.40;99.90;;;;;;5032871;28;20204;-85
2022/03/09 01:41:32;;;;;;;27.20;12.73;;;-1.40;99.90;;;;;;5033153;28;20283;-84
2022/03/09 01:44:07;;;;;;;30.10;13.53;;;-1.40;1.00;;;;;;5032817;28;20193;-84
2022/03/09 01:46:34;;;;;;;25.00;12.27;;;-1.40;1.00;;;;;;5032639;28;20669;-86
2022/03/09 01:49:01;;;;;;;26.37;12.67;;;-1.40;1.00;;;;;;5051117;28;20246;-84
2022/03/09 01:51:28;;;;;;;;;;;-1.40;1.00;;;;;;5053139;28;20254;-85
2022/03/09 01:53:55;;;;;;;30.70;13.50;;;-1.30;1.00;;;;;;5053264;28;19925;-85
2022/03/09 01:56:24;;;;;;;37.90;13.90;;;-1.40;1.00;;;;;;5041930;28;20272;-84
2022/03/09 01:58:51;;;;;;;27.37;13.00;;;-1.30;1.00;;;;;;5032753;28;20197;-86
2022/03/09 02:01:18;;;;;;;29.83;14.10;;;-1.30;1.00;;;;;;5032760;28;20551;-84
2022/03/09 02:03:45;;;;;;;28.70;14.27;;;-1.30;1.00;;;;;;5032464;28;20189;-84
2022/03/09 02:06:12;;;;;;;27.60;13.90;;;-1.30;1.00;;;;;;5032403;28;20274;-86
2022/03/09 02:11:26;;;;;;;;;;;-1.40;1.00;;;;;;5033150;28;20385;-85
2022/03/09 02:13:53;;;;;;;;;;;-1.40;1.00;;;;;;5032932;28;20431;-84
2022/03/09 02:16:20;;;;;;;;;;;-1.40;1.00;;;;;;5033064;28;19925;-84
2022/03/09 02:18:47;;;;;;;;;;;-1.40;1.00;;;;;;5033399;28;19925;-84
2022/03/09 02:21:17;;;;;;;30.87;13.70;;;-1.50;1.00;;;;;;5032601;28;20061;-86
2022/03/09 02:23:46;;;;;;;27.00;13.23;;;-1.50;1.00;;;;;;5032553;28;20197;-84
2022/03/09 02:26:13;;;;;;;30.03;13.47;;;-1.50;1.00;;;;;;5032419;28;20326;-85
2022/03/09 02:28:41;;;;;;;28.43;13.77;;;-1.50;1.00;;;;;;5032397;28;20197;-85
2022/03/09 02:31:08;;;;;;;26.97;12.53;;;-1.50;1.00;;;;;;5031610;28;20711;-85
2022/03/09 02:33:35;;;;;;;27.87;12.90;;;-1.60;1.00;;;;;;5032413;28;20196;-85
2022/03/09 02:36:03;;;;;;;27.77;12.30;;;-1.60;1.00;;;;;;5032396;28;20258;-84
2022/03/09 02:38:30;;;;;;;24.57;12.80;;;-1.60;1.00;;;;;;5032276;28;20717;-85
2022/03/09 02:40:58;;;;;;;24.53;12.20;;;-1.60;1.00;;;;;;5032261;28;20197;-85
2022/03/09 02:43:26;;;;;;;26.00;12.43;;;-1.60;1.00;;;;;;5032177;28;20197;-86
2022/03/09 02:45:53;;;;;;;24.47;12.27;;;-1.60;1.00;;;;;;5032172;28;20252;-84
2022/03/09 02:48:20;;;;;;;29.93;12.53;;;-1.70;1.00;;;;;;5032293;28;20193;-85
2022/03/09 02:50:47;;;;;;;24.90;12.27;;;-1.60;1.00;;;;;;5032293;28;20229;-85
2022/03/09 02:53:14;;;;;;;26.03;11.77;;;-1.70;1.00;;;;;;5031959;28;20539;-85
2022/03/09 02:55:41;;;;;;;22.73;11.80;;;-1.70;1.00;;;;;;5036112;28;20246;-85
2022/03/09 02:58:09;;;;;;;24.77;11.93;;;-1.70;1.00;;;;;;5052230;28;20254;-85
2022/03/09 03:00:36;;;;;;;27.60;12.57;;;-1.70;1.00;;;;;;5050173;28;20549;-84
2022/03/09 03:03:03;;;;;;;25.80;12.50;;;-1.70;1.00;;;;;;5051974;28;20197;-84
2022/03/09 03:05:30;;;;;;;24.50;12.27;;;-1.70;1.00;;;;;;5051915;28;20217;-84
2022/03/09 03:07:57;;;;;;;23.03;10.60;;;-1.80;1.00;;;;;;5052250;28;20596;-84
2022/03/09 03:10:24;;;;;;;22.43;11.90;;;-1.80;1.00;;;;;;5051622;28;21021;-86
2022/03/09 03:12:51;;;;;;;27.60;12.57;;;-1.80;1.00;;;;;;5052193;28;20192;-85
2022/03/09 03:15:19;;;;;;;21.33;11.30;;;-1.80;1.00;;;;;;5051958;28;20526;-84
2022/03/09 03:17:46;;;;;;;23.70;11.53;;;-1.80;1.00;;;;;;5044741;28;20645;-86
2022/03/09 03:20:13;;;;;;;22.93;12.33;;;-1.80;1.00;;;;;;5043178;28;20266;-85
2022/03/09 03:22:40;;;;;;;24.80;12.53;;;-1.80;1.00;;;;;;5051880;28;20250;-85
2022/03/09 03:25:08;;;;;;;27.33;13.10;;;-1.80;1.00;;;;;;5051425;28;20243;-84
2022/03/09 03:27:35;;;;;;;30.17;13.47;;;-1.80;1.00;;;;;;5051503;28;20529;-85
2022/03/09 03:30:02;;;;;;;24.93;13.30;;;-1.80;1.00;;;;;;5052016;28;20219;-86
2022/03/09 03:32:30;;;;;;;27.77;13.47;;;-1.80;1.00;;;;;;5051981;28;20204;-86
2022/03/09 03:34:57;;;;;;;25.83;12.97;;;-1.80;1.00;;;;;;5051629;28;20782;-85
2022/03/09 03:37:24;;;;;;;25.03;12.17;;;-1.80;1.00;;;;;;5051416;28;20548;-84
2022/03/09 03:39:51;;;;;;;27.60;13.30;;;-1.80;1.00;;;;;;5051705;28;20197;-85
2022/03/09 03:42:18;;;;;;;23.73;12.20;;;-1.80;1.00;;;;;;5051420;28;20243;-85
2022/03/09 03:44:45;;;;;;;29.67;13.57;;;-1.80;1.00;;;;;;5054648;28;20652;-85
2022/03/09 03:47:12;;;;;;;29.80;12.97;;;-1.90;1.00;;;;;;5052930;28;20290;-84
2022/03/09 03:49:40;;;;;;;30.27;13.27;;;-1.90;1.00;;;;;;5035213;28;20284;-84
2022/03/09 03:52:07;;;;;;;28.43;13.30;;;-1.90;1.00;;;;;;5035273;28;20216;-85
2022/03/09 03:54:35;;;;;;;27.47;13.50;;;-1.90;1.00;;;;;;5035237;28;20201;-86
2022/03/09 03:57:01;;;;;;;28.93;14.17;;;-1.90;1.00;;;;;;5035289;28;20653;-86
2022/03/09 03:59:29;;;;;;;27.47;13.83;;;-1.90;1.00;;;;;;5034969;28;20197;-84
2022/03/09 04:01:55;;;;;;;30.17;14.23;;;-1.80;1.00;;;;;;5035850;28;20560;-85
2022/03/09 04:04:22;;;;;;;30.07;13.83;;;-1.80;1.00;;;;;;5034790;28;20727;-86
2022/03/09 04:06:51;;;;;;;28.83;14.27;;;-1.80;1.00;;;;;;5034868;28;20213;-85
2022/03/09 04:09:18;;;;;;;32.43;15.00;;;-1.80;1.00;;;;;;5034845;28;20189;-84
2022/03/09 04:11:45;;;;;;;30.87;14.60;;;-1.80;1.00;;;;;;5034882;28;20592;-85
2022/03/09 04:14:12;;;;;;;32.53;15.90;;;-1.80;1.00;;;;;;5034451;28;20645;-84
2022/03/09 04:16:39;;;;;;;27.37;14.03;;;-1.80;1.00;;;;;;5034464;28;20592;-86
2022/03/09 04:19:06;;;;;;;31.70;14.83;;;-1.80;1.00;;;;;;5053014;28;20235;-85
2022/03/09 04:21:33;;;;;;;30.07;14.97;;;-1.80;1.00;;;;;;5054512;28;20691;-85
2022/03/09 04:24:01;;;;;;;31.60;14.57;;;-1.90;1.00;;;;;;5054259;28;20247;-84
2022/03/09 04:26:28;;;;;;;28.93;15.40;;;-1.90;1.00;;;;;;5044607;28;20213;-85
2022/03/09 04:28:55;;;;;;;29.10;15.40;;;-1.90;1.00;;;;;;5034561;28;20311;-85
2022/03/09 04:31:22;;;;;;;32.67;14.63;;;-1.90;1.00;;;;;;5034449;28;20251;-84
2022/03/09 04:33:49;;;;;;;;;;;-2.00;1.00;;;;;;5034318;28;20646;-84
2022/03/09 04:36:16;;;;;;;;;;;-2.00;1.00;;;;;;5034836;28;19999;-85
2022/03/09 04:38:42;;;;;;;;;;;-2.00;1.00;;;;;;5034756;28;19967;-85
2022/03/09 04:41:11;;;;;;;;;;;-2.00;1.00;;;;;;5034420;28;20263;-84
2022/03/09 04:43:37;;;;;;;;;;;-2.10;1.00;;;;;;5034716;28;19975;-84
2022/03/09 04:46:04;;;;;;;;;;;-2.10;1.00;;;;;;5034595;28;19976;-84
2022/03/09 04:48:31;;;;;;;;;;;-2.10;1.00;;;;;;5048096;28;20289;-85
2022/03/09 04:51:00;;;;;;;;;;;-2.10;1.00;;;;;;5054242;28;20259;-84
2022/03/09 04:53:27;;;;;;;;;;;-2.10;1.00;;;;;;5054051;28;19921;-84
2022/03/09 04:55:54;;;;;;;;;;;-2.10;1.00;;;;;;5054141;28;19982;-84
2022/03/09 04:58:23;;;;;;;;;;;-2.10;1.00;;;;;;5054453;28;19968;-84
2022/03/09 05:00:50;;;;;;;;;;;-2.20;1.00;;;;;;5053988;28;20366;-85
2022/03/09 05:03:16;;;;;;;;;;;-2.20;1.00;;;;;;5054177;28;19924;-85
2022/03/09 05:05:43;;;;;;;;;;;-2.20;1.00;;;;;;5053833;28;19947;-85
2022/03/09 05:08:10;;;;;;;;;;;-2.20;1.00;;;;;;5054140;28;19976;-84
2022/03/09 05:10:37;;;;;;;;;;;-2.20;1.00;;;;;;5053939;28;19967;-83
2022/03/09 05:13:04;;;;;;;;;;;-2.20;1.00;;;;;;5053925;28;19982;-85
2022/03/09 05:15:32;;;;;;;;;;;-2.20;1.00;;;;;;5054035;28;19924;-84
2022/03/09 05:17:59;;;;;;;;;;;-2.20;1.00;;;;;;5041811;28;19925;-85
2022/03/09 05:20:26;;;;;;;;;;;-2.20;1.00;;;;;;5033745;28;19921;-85
2022/03/09 05:22:53;;;;;;;;;;;-2.20;1.00;;;;;;5033615;28;20344;-85
2022/03/09 05:25:20;;;;;;;;;;;-2.30;1.00;;;;;;5036798;28;20000;-83
2022/03/09 05:27:46;;;;;;;;;;;-2.30;1.00;;;;;;5053843;28;19967;-84
2022/03/09 05:30:13;;;;;;;;;;;-2.30;1.00;;;;;;5053814;28;19925;-84
2022/03/09 05:32:43;;;;;;;;;;;-2.30;1.00;;;;;;5062498;28;19931;-84
2022/03/09 05:35:10;;;;;;;;;;;-2.30;1.00;;;;;;5042218;28;19944;-85
2022/03/09 05:37:37;;;;;;;;;;;-2.30;1.00;;;;;;5053990;28;19967;-84
2022/03/09 05:40:05;;;;;;;;;;;-2.30;1.00;;;;;;5041846;28;19925;-85
2022/03/09 05:42:34;;;;;;;;;;;-2.30;1.00;;;;;;5041873;28;19921;-89
2022/03/09 05:45:01;;;;;;;;;;;-2.30;1.00;;;;;;5037460;28;19924;-88
2022/03/09 05:47:28;;;;;;;;;;;-2.20;1.00;;;;;;5046448;28;19924;-85
2022/03/09 05:49:57;;;;;;;;;;;-2.20;1.00;;;;;;5062792;28;19975;-86
2022/03/09 05:52:23;;;;;;;;;;;-2.10;1.00;;;;;;5059272;28;19924;-86
2022/03/09 05:54:50;;;;;;;;;;;-2.10;1.00;;;;;;5057894;28;19921;-85
2022/03/09 05:57:19;;;;;;;;;;;-2.00;1.00;;;;;;5056913;28;19971;-87
2022/03/09 05:59:46;;;;;;;;;;;-2.00;1.00;;;;;;5055197;28;19920;-84
2022/03/09 06:02:12;;;;;;;;;;;-1.90;1.00;;;;;;5054907;28;19924;-86
2022/03/09 06:04:39;;;;;;;;;;;-1.80;1.00;;;;;;5054860;28;19920;-86
2022/03/09 06:07:07;;;;;;;;;;;-1.70;1.00;;;;;;5046846;28;19928;-86
2022/03/09 06:09:34;;;;;;;;;;;-1.30;73.30;;;;;;5033385;28;19975;-87
2022/03/09 06:12:01;;;;;;;;;;;-0.50;99.90;;;;;;5037436;28;19967;-87
2022/03/09 06:14:28;;;;;;;;;;;0.40;1.00;;;;;;5034929;28;19928;-86
2022/03/09 06:16:54;;;;;;;;;;;1.10;1.00;;;;;;5035204;28;19975;-84
2022/03/09 06:19:21;;;;;;;;;;;2.10;1.00;;;;;;5033988;28;19925;-84
2022/03/09 06:21:48;;;;;;;;;;;3.00;1.00;;;;;;5036100;28;19948;-86
2022/03/09 06:24:16;;;;;;;;;;;3.90;1.00;;;;;;5035604;28;19921;-88
2022/03/09 06:26:43;;;;;;;;;;;4.30;99.90;;;;;;5055270;28;19971;-86
2022/03/09 06:29:10;;;;;;;;;;;4.40;1.00;;;;;;5058806;28;19920;-88
2022/03/09 06:31:38;;;;;;;27.03;13.67;;;4.70;1.00;;;;;;5057464;28;20377;-86
2022/03/09 06:34:05;;;;;;;31.97;14.63;;;5.00;1.00;;;;;;5055642;28;20197;-86
2022/03/09 06:36:44;;;;;;;27.27;14.27;;;5.20;1.00;;;;;;5055567;28;20198;-90
2022/03/09 06:39:25;;;;;;;25.67;13.60;;;5.30;1.00;;;;;;5052017;28;20192;-87
2022/03/09 06:41:52;;;;;;;30.37;14.00;;;5.50;1.00;;;;;;5058076;28;20187;-86
2022/03/09 06:44:19;;;;;;;31.60;15.33;;;5.70;1.00;;;;;;5056830;28;20214;-86
2022/03/09 06:46:56;;;;;;;27.93;14.60;;;5.80;99.90;;;;;;5061282;28;20224;-89
2022/03/09 06:49:23;;;;;;;28.23;15.80;;;5.80;99.90;;;;;;5057376;28;20621;-85
2022/03/09 06:51:50;;;;;;;32.47;16.17;;;5.80;99.90;;;;;;5057551;28;20320;-87
2022/03/09 06:54:17;;;;;;;31.87;16.60;;;5.70;99.90;;;;;;5057307;28;20194;-86
2022/03/09 06:56:47;;;;;;;32.60;15.97;;;5.80;99.90;;;;;;5045719;28;20210;-86
2022/03/09 06:59:14;;;;;;;29.43;15.00;;;6.10;99.90;;;;;;5036508;28;20315;-84
2022/03/09 07:01:41;;;;;;;28.10;13.77;;;6.60;99.90;;;;;;5033785;28;20217;-85
2022/03/09 07:04:07;;;;;;;25.80;12.57;;;7.10;99.90;;;;;;5040332;28;20189;-84
2022/03/09 07:06:37;;;;;;;23.43;12.27;;;7.70;99.90;;;;;;5056815;28;20268;-84
2022/03/09 07:09:05;;;;;;;23.57;11.90;;;8.50;99.90;;;;;;5052078;28;20206;-85
2022/03/09 07:11:32;;;;;;;23.27;12.00;;;9.40;99.90;;;;;;5056518;28;20215;-88
2022/03/09 07:14:00;;;;;;;20.20;11.30;;;10.30;99.90;;;;;;5053316;28;20241;-86
2022/03/09 07:16:27;;;;;;;24.30;11.90;;;11.20;99.90;;;;;;5052454;28;20262;-87
2022/03/09 07:18:56;;;;;;;28.20;15.97;;;12.10;85.50;;;;;;5036995;28;20661;-87
2022/03/09 07:21:23;;;;;;;40.08;22.13;;;12.80;1.00;;;;;;5035581;28;20193;-88
2022/03/09 07:23:50;;;;;;;31.42;19.40;;;13.60;1.00;;;;;;5037775;28;20201;-88
2022/03/09 07:26:17;;;;;;;55.35;30.75;;;14.60;1.00;;;;;;5039183;28;20259;-86
2022/03/09 07:28:44;;;;;;;64.05;38.70;;;15.30;1.00;;;;;;5038700;28;20221;-86
2022/03/09 07:31:17;;;;;;;54.40;33.40;;;16.00;1.00;;;;;;5038215;28;20194;-86
2022/03/09 07:33:45;;;;;;;49.75;31.27;;;16.60;1.00;;;;;;5037944;28;20443;-88
2022/03/09 07:36:12;;;;;;;28.05;18.35;;;17.20;1.00;;;;;;5045474;28;20194;-85
2022/03/09 07:38:40;;;;;;;24.45;16.80;;;17.60;1.00;;;;;;5039686;28;20259;-87
2022/03/09 07:41:07;;;;;;;24.83;15.57;;;17.80;1.00;;;;;;5039317;28;20190;-87
2022/03/09 07:43:41;;;;;;;21.40;15.25;;;18.10;1.00;;;;;;5041879;28;20221;-90
2022/03/09 07:46:19;;;;;;;23.70;14.30;;;18.50;1.00;;;;;;5046872;28;20193;-91
2022/03/09 07:48:54;;;;;;;22.85;14.32;;;18.80;1.00;;;;;;5059076;28;20629;-88
2022/03/09 07:51:21;;;;;;;21.60;14.45;;;19.10;1.00;;;;;;5062571;28;20206;-84
2022/03/09 07:53:48;;;;;;;22.55;14.43;;;19.40;1.00;;;;;;5061988;28;20247;-89
2022/03/09 07:56:15;;;;;;;22.83;14.23;;;19.80;1.00;;;;;;5061589;28;20197;-87
2022/03/09 07:58:42;;;;;;;19.08;13.82;;;19.90;1.00;;;;;;5059053;28;20216;-85
2022/03/09 08:01:09;;;;;;;20.58;13.77;;;20.20;1.00;;;;;;5050301;28;20645;-85
2022/03/09 08:03:39;;;;;;;23.77;13.85;;;20.60;1.00;;;;;;5058145;28;20743;-84
2022/03/09 08:06:09;;;;;;;21.00;14.10;;;21.10;1.00;;;;;;5060945;28;20189;-86
2022/03/09 08:08:36;;;;;;;25.05;14.32;;;21.70;1.00;;;;;;5058192;28;20250;-84
2022/03/09 08:11:03;;;;;;;19.85;13.75;;;22.20;1.00;;;;;;5057459;28;20195;-84
2022/03/09 08:13:30;;;;;;;19.88;13.43;;;22.50;1.00;;;;;;5057342;28;20246;-83
2022/03/09 08:15:57;;;;;;;28.55;13.70;;;22.80;1.00;;;;;;5055035;28;20193;-85
2022/03/09 08:18:27;;;;;;;18.80;12.25;;;23.10;1.00;;;;;;5038973;28;20272;-85
2022/03/09 08:20:55;;;;;;;15.55;11.98;;;23.30;1.00;;;;;;5034998;28;20230;-87
2022/03/09 08:23:23;;;;;;;15.88;12.13;;;23.40;1.00;;;;;;5035726;28;20243;-85
2022/03/09 08:25:50;;;;;;;16.75;12.52;;;23.40;1.00;;;;;;5034910;28;20204;-86
2022/03/09 08:28:17;;;;;;;19.38;14.90;;;23.20;1.00;;;;;;5046263;28;20196;-84
2022/03/09 08:30:44;;;;;;;21.63;15.48;;;23.20;1.00;;;;;;5055635;28;20243;-85
2022/03/09 08:33:12;;;;;;;25.77;19.50;;;23.10;1.00;;;;;;5053280;28;20232;-85
2022/03/09 08:35:39;;;;;;;47.22;31.83;;;23.40;1.00;;;;;;5054364;28;20193;-85
2022/03/09 08:38:17;;;;;;;52.90;35.90;;;23.50;1.00;;;;;;5054539;28;20216;-83
2022/03/09 08:40:58;;;;;;;29.60;21.05;;;23.80;1.00;;;;;;5056359;28;20279;-87
2022/03/09 08:43:46;;;;;;;25.52;20.00;;;23.70;1.00;;;;;;5056729;28;20188;-86
2022/03/09 08:46:19;;;;;;;17.88;13.10;;;23.80;1.00;;;;;;5058127;28;20192;-83
2022/03/09 08:48:52;;;;;;;18.23;13.32;;;23.70;1.00;;;;;;5038105;28;20224;-84
2022/03/09 08:51:21;;;;;;;17.60;12.82;;;23.80;1.00;;;;;;5045726;28;20272;-84
2022/03/09 08:53:50;;;;;;;12.90;11.45;;;23.80;1.00;;;;;;5058024;28;20246;-84
2022/03/09 08:56:29;;;;;;;17.17;12.23;;;23.60;1.00;;;;;;5061861;28;20193;-86
2022/03/09 08:59:03;;;;;;;19.92;13.07;;;23.60;1.00;;;;;;5058582;28;20224;-86
2022/03/09 09:01:30;;;;;;;19.10;12.68;;;23.50;1.00;;;;;;5053374;28;20280;-84
2022/03/09 09:03:57;;;;;;;17.42;12.25;;;23.40;1.00;;;;;;5054513;28;20192;-87
2022/03/09 09:06:24;;;;;;;15.23;12.05;;;23.30;1.00;;;;;;5055249;28;20595;-84
2022/03/09 09:08:53;;;;;;;15.15;12.00;;;23.10;1.00;;;;;;5054695;28;20239;-86
2022/03/09 09:11:25;;;;;;;15.50;12.45;;;22.80;1.00;;;;;;5056164;28;20192;-82
2022/03/09 09:13:52;;;;;;;21.55;12.93;;;22.50;1.00;;;;;;5054384;28;20197;-85
2022/03/09 09:16:20;;;;;;;15.50;12.48;;;22.60;1.00;;;;;;5051636;28;20280;-85
2022/03/09 09:18:55;;;;;;;37.13;13.55;;;22.70;1.00;;;;;;5039765;28;20223;-86
2022/03/09 09:21:23;;;;;;;18.85;12.35;;;22.80;1.00;;;;;;5054998;28;20217;-86
2022/03/09 09:23:51;;;;;;;20.75;13.65;;;23.00;1.00;;;;;;5053148;28;20724;-83
2022/03/09 09:26:18;;;;;;;16.27;12.40;;;23.10;1.00;;;;;;5053788;28;20239;-85
2022/03/09 09:28:46;;;;;;;26.40;13.45;;;23.00;1.00;;;;;;5054066;28;20602;-86
2022/03/09 09:31:13;;;;;;;16.55;12.95;;;23.10;1.00;;;;;;5054819;28;20247;-85
2022/03/09 09:33:40;;;;;;;18.85;13.07;;;22.80;1.00;;;;;;5054609;28;20197;-85
2022/03/09 09:36:08;;;;;;;23.10;14.90;;;22.40;1.00;;;;;;5054104;28;20197;-86
2022/03/09 09:38:35;;;;;;;16.02;13.38;;;22.10;1.00;;;;;;5054009;28;20217;-85
2022/03/09 09:41:08;;;;;;;16.65;12.60;;;21.90;1.00;;;;;;5053794;28;20204;-85
2022/03/09 09:43:35;;;;;;;16.55;12.45;;;21.80;1.00;;;;;;5053626;28;20618;-84
2022/03/09 09:46:02;;;;;;;16.75;13.30;;;21.40;1.00;;;;;;5053923;28;20254;-85
2022/03/09 09:48:29;;;;;;;16.70;13.35;;;20.90;1.00;;;;;;5049090;28;20554;-85
2022/03/09 09:51:14;;;;;;;20.50;14.55;;;20.30;1.00;;;;;;5053268;28;20208;-87
2022/03/09 09:53:49;;;;;;;17.80;13.65;;;19.90;1.00;;;;;;5053525;28;20189;-87
2022/03/09 09:56:21;;;;;;;22.80;16.27;;;19.50;1.00;;;;;;5053734;28;20188;-84
2022/03/09 09:58:49;;;;;;;18.35;13.77;;;19.00;1.00;;;;;;5053193;28;20665;-86
2022/03/09 10:01:20;;;;;;;18.38;13.48;;;18.50;1.00;;;;;;5054932;28;20641;-83
2022/03/09 10:03:53;;;;;;;18.02;13.43;;;18.00;1.00;;;;;;5050548;28;20197;-87
2022/03/09 10:06:20;;;;;;;19.17;13.25;;;17.40;1.00;;;;;;5051403;28;20650;-85
2022/03/09 10:09:01;;;;;;;22.63;15.23;;;16.90;1.00;;;;;;5055511;28;20209;-90
2022/03/09 10:11:46;;;;;;;19.95;14.23;;;16.30;1.00;;;;;;5055813;28;20207;-84
2022/03/09 10:14:14;;;;;;;21.00;14.37;;;15.70;1.00;;;;;;5055701;28;20198;-85
2022/03/09 10:17:01;;;;;;;22.77;14.83;;;15.20;1.00;;;;;;5054349;28;20188;-87
2022/03/09 10:19:33;;;;;;;23.47;14.80;;;14.80;1.00;;;;;;5055629;28;20207;-87
2022/03/09 10:22:21;;;;;;;18.53;13.60;;;14.70;1.00;;;;;;5013255;28;20196;-88
2022/03/09 10:24:49;;;;;;;24.73;14.70;;;14.50;1.00;;;;;;5011066;28;20237;-84
2022/03/09 10:27:40;;;;;;;21.93;14.30;;;14.40;1.00;;;;;;5013761;28;20199;-85
2022/03/09 10:30:12;;;;;;;21.57;13.97;;;14.20;1.00;;;;;;5013173;28;20202;-87
2022/03/09 10:32:54;;;;;;;22.23;13.30;;;14.20;1.00;;;;;;5012977;28;20552;-87
2022/03/09 10:35:41;;;;;;;23.60;13.40;;;14.20;1.00;;;;;;5012801;28;20611;-88
2022/03/09 10:38:09;;;;;;;20.33;13.10;;;14.20;1.00;;;;;;5012774;28;20171;-88
2022/03/09 10:40:42;;;;;;;31.03;18.20;;;14.10;1.00;;;;;;5013167;28;20213;-85
2022/03/09 10:43:16;;;;;;;26.47;16.87;;;13.80;1.00;;;;;;5014381;28;20191;-87
2022/03/09 10:46:03;;;;;;;36.63;23.23;;;13.70;1.00;;;;;;5013510;28;20213;-87
2022/03/09 10:49:00;;;;;;;22.03;15.00;;;13.60;1.00;;;;;;5011492;28;20187;-88
2022/03/09 10:51:30;;;;;;;26.10;14.73;;;13.50;1.00;;;;;;5012696;28;20193;-87
2022/03/09 10:53:58;;;;;;;25.13;16.17;;;13.30;1.00;;;;;;5017270;28;20199;-84
2022/03/09 10:56:31;;;;;;;28.10;18.23;;;13.00;1.00;;;;;;5017185;28;20252;-85
2022/03/09 10:59:09;;;;;;;27.77;15.83;;;13.00;1.00;;;;;;5017047;28;20632;-85
2022/03/09 11:01:38;;;;;;;24.80;13.80;;;12.80;1.00;;;;;;5016243;28;20192;-84
2022/03/09 11:04:12;;;;;;;18.40;11.90;;;12.70;1.00;;;;;;5016399;28;20210;-85
2022/03/09 11:06:42;;;;;;;19.93;12.53;;;12.70;1.00;;;;;;5019843;28;20557;-83
2022/03/09 11:09:17;;;;;;;22.13;12.97;;;12.50;1.00;;;;;;5018308;28;20223;-85
2022/03/09 11:11:46;;;;;;;16.73;10.93;;;12.40;1.00;;;;;;5016440;28;20217;-86
2022/03/09 11:14:15;;;;;;;17.77;11.90;;;12.30;1.00;;;;;;5017357;28;20231;-84
2022/03/09 11:16:57;;;;;;;18.07;11.60;;;12.20;1.00;;;;;;5017441;28;20249;-87
2022/03/09 11:19:25;;;;;;;42.60;13.57;;;12.00;1.00;;;;;;5017093;28;20208;-86
2022/03/09 11:21:52;;;;;;;22.83;11.90;;;11.90;1.00;;;;;;5056785;28;20259;-86
2022/03/09 11:24:25;;;;;;;22.80;12.13;;;11.90;1.00;;;;;;5058159;28;20244;-87
2022/03/09 11:27:03;;;;;;;24.20;12.90;;;12.00;1.00;;;;;;5051715;28;20246;-86
2022/03/09 11:29:35;;;;;;;20.27;11.43;;;12.10;1.00;;;;;;5055757;28;20250;-87
2022/03/09 11:32:03;;;;;;;27.30;15.37;;;12.30;1.00;;;;;;5053110;28;20189;-85
2022/03/09 11:34:35;;;;;;;30.83;14.00;;;12.20;1.00;;;;;;5055448;28;20640;-87
2022/03/09 11:37:04;;;;;;;25.00;11.63;;;12.20;1.00;;;;;;5056442;28;20192;-85
2022/03/09 11:39:31;;;;;;;20.73;11.63;;;12.20;1.00;;;;;;5056206;28;20231;-87
2022/03/09 11:42:35;;;;;;;20.20;12.07;;;12.30;1.00;;;;;;5057211;28;20198;-85
2022/03/09 11:45:33;;;;;;;22.60;11.43;;;12.30;1.00;;;;;;5054711;28;20191;-84
2022/03/09 11:48:04;;;;;;;18.13;10.67;;;12.40;1.00;;;;;;5052153;28;20191;-86
2022/03/09 11:50:33;;;;;;;18.93;11.30;;;12.30;1.00;;;;;;5056350;28;20187;-86
2022/03/09 11:53:03;;;;;;;30.13;12.47;;;12.30;1.00;;;;;;5055041;28;20700;-86
2022/03/09 11:55:31;;;;;;;15.63;9.87;;;12.40;1.00;;;;;;5056385;28;20198;-86
2022/03/09 11:58:10;;;;;;;20.00;11.13;;;12.40;1.00;;;;;;5055234;28;20195;-85
2022/03/09 12:00:41;;;;;;;20.47;12.33;;;12.30;1.00;;;;;;5055035;28;20244;-83
2022/03/09 12:03:08;;;;;;;22.70;12.17;;;12.30;1.00;;;;;;5051654;28;20254;-83
2022/03/09 12:05:41;;;;;;;14.90;10.10;;;12.40;1.00;;;;;;5054522;28;20722;-84
2022/03/09 12:08:09;;;;;;;18.63;10.53;;;12.50;1.00;;;;;;5055004;28;20257;-86
2022/03/09 12:10:55;;;;;;;16.50;10.50;;;12.50;1.00;;;;;;5054642;28;20193;-85
2022/03/09 12:13:31;;;;;;;17.07;10.47;;;12.50;1.00;;;;;;5055184;28;20182;-86
2022/03/09 12:16:19;;;;;;;19.67;10.73;;;12.30;1.00;;;;;;5053279;28;20655;-84
2022/03/09 12:18:52;;;;;;;17.30;10.43;;;12.30;1.00;;;;;;5047834;28;20253;-87
2022/03/09 12:21:21;;;;;;;19.53;10.90;;;12.30;1.00;;;;;;5034943;28;20692;-85
2022/03/09 12:24:31;;;;;;;16.60;9.77;;;12.20;1.00;;;;;;5052979;28;20270;-83
2022/03/09 12:26:58;;;;;;;15.47;9.77;;;12.30;1.00;;;;;;5055933;28;20186;-84
2022/03/09 12:29:39;;;;;;;16.87;10.33;;;12.20;1.00;;;;;;5056525;28;20198;-86
2022/03/09 12:32:11;;;;;;;16.87;9.80;;;12.10;1.00;;;;;;5042433;28;20193;-86
2022/03/09 12:34:40;;;;;;;17.13;10.03;;;12.10;1.00;;;;;;5054434;28;20677;-85
2022/03/09 12:37:13;;;;;;;17.47;10.73;;;12.00;1.00;;;;;;5055751;28;20201;-87
2022/03/09 12:39:44;;;;;;;18.43;10.83;;;11.90;1.00;;;;;;5054363;28;20743;-86
2022/03/09 12:42:13;;;;;;;16.90;11.23;;;12.00;1.00;;;;;;5055237;28;20239;-83
2022/03/09 12:44:45;;;;;;;18.10;11.00;;;12.00;1.00;;;;;;5055617;28;20198;-89
2022/03/09 12:47:15;;;;;;;15.80;10.43;;;11.90;1.00;;;;;;5055289;28;20193;-85
2022/03/09 12:49:44;;;;;;;16.10;10.13;;;11.80;1.00;;;;;;5055763;28;20194;-86
2022/03/09 12:52:14;;;;;;;18.07;11.63;;;11.80;1.00;;;;;;5056228;28;20548;-86
2022/03/09 12:54:48;;;;;;;20.27;11.13;;;11.80;1.00;;;;;;5055683;28;20194;-87
2022/03/09 12:57:34;;;;;;;38.53;19.40;;;11.80;1.00;;;;;;5055002;28;20190;-85
2022/03/09 13:00:04;;;;;;;22.70;13.20;;;11.90;1.00;;;;;;5055195;28;20225;-87
2022/03/09 13:02:41;;;;;;;17.90;10.80;;;12.00;1.00;;;;;;5037496;28;20190;-85
2022/03/09 13:05:14;;;;;;;49.93;23.43;;;12.00;1.00;;;;;;5054415;28;20213;-85
2022/03/09 13:07:53;;;;;;;30.53;15.33;;;12.00;1.00;;;;;;5052939;28;20709;-85